Latest Weather Observations for Cape Wessel

IDD60801

Issued at 8:01 pm CST Sunday 25 September 2016 (issued every 30 minutes, with the page automatically refreshed every 10 minutes)

About weather observations | Map of weather stations | Latest weather observations for NT | Other Formats
Station Details ID: 200786 Name: CAPE WESSEL Lat: -11.00 Lon: 136.76 Height: 18.0 m
Data from the previous 72 hours. | See also: Recent months at Cape Wessel
Date/Time
CST
Temp
°C
App
Temp
°C
Dew
Point
°C
Rel
Hum
%
Delta-T
°C
Wind Press
QNH
hPa
Press
MSL
hPa
Rain since
9am
mm
Dir  Spd
km/h
Gust
km/h
Spd
kts
Gust
kts
25/08:00pm 26.5 29.5 23.4 83 2.1 ESE 13 17 7 9 1009.8 1009.7 0.0
25/07:30pm 26.5 29.4 23.2 82 2.3 ESE 13 15 7 8 1009.5 1009.4 0.0
25/07:00pm 26.7 30.1 23.4 82 2.3 ESE 11 13 6 7 1009.2 1009.1 0.0
25/06:30pm 26.9 30.0 22.9 79 2.7 E 11 13 6 7 1008.6 1008.5 0.0
25/06:00pm 27.8 30.6 23.0 75 3.3 E 13 15 7 8 1008.1 1008.0 0.0
25/05:30pm 29.0 32.2 23.0 70 4.1 E 11 13 6 7 1008.0 1007.9 0.0
25/05:00pm 29.7 32.8 22.9 67 4.6 ENE 11 15 6 8 1007.8 1007.7 0.0
25/04:30pm 30.5 33.2 22.9 64 5.2 E 13 17 7 9 1007.7 1007.6 0.0
25/04:00pm 31.3 34.5 23.7 64 5.3 E 13 15 7 8 1007.6 1007.5 0.0
25/03:30pm 31.6 34.5 23.2 61 5.8 E 13 17 7 9 1007.5 1007.4 0.0
25/03:00pm 31.2 33.6 23.0 61 5.6 ENE 15 19 8 10 1007.5 1007.4 0.0
25/02:30pm 31.5 34.5 23.3 61 5.7 ENE 13 15 7 8 1007.6 1007.5 0.0
25/02:00pm 31.7 34.2 23.2 60 5.9 ENE 15 19 8 10 1007.7 1007.6 0.0
25/01:30pm 32.2 34.9 23.4 59 6.1 ENE 15 19 8 10 1008.0 1007.9 0.0
25/01:00pm 31.8 34.0 23.3 60 5.9 ENE 17 20 9 11 1008.2 1008.1 0.0
25/12:30pm 32.8 35.4 24.0 60 6.2 ENE 17 20 9 11 1008.7 1008.6 0.0
25/12:00pm 32.4 34.6 23.9 61 5.9 ENE 19 24 10 13 1009.2 1009.1 0.0
25/11:30am 30.6 33.1 23.8 67 4.7 ENE 17 24 9 13 1009.7 1009.6 0.0
25/11:00am 31.9 34.3 23.7 62 5.7 E 17 20 9 11 1010.1 1010.0 0.0
25/10:30am 31.8 34.0 23.9 63 5.5 E 19 24 10 13 1010.3 1010.2 0.0
25/10:00am 31.5 33.5 23.9 64 5.3 E 20 26 11 14 1010.4 1010.3 0.0
25/09:30am 31.1 33.1 24.0 66 4.9 E 20 24 11 13 1010.5 1010.4 0.0
25/09:00am 30.5 32.7 23.9 68 4.6 E 19 24 10 13 1010.5 1010.4 0.0
25/08:30am 30.1 32.6 23.8 69 4.4 E 17 20 9 11 1010.2 1010.1 0.0
25/08:00am 29.0 31.7 23.4 72 3.8 E 15 20 8 11 1010.0 1009.9 0.0
25/07:30am 27.9 30.5 23.9 79 2.8 E 17 20 9 11 1009.7 1009.6 0.0
25/07:00am 26.8 29.4 23.9 84 2.0 E 17 20 9 11 1009.3 1009.2 0.0
25/06:30am 26.1 28.6 23.8 87 1.6 E 17 20 9 11 1008.9 1008.8 0.0
25/06:00am 25.6 28.1 23.1 86 1.7 E 15 19 8 10 1008.5 1008.4 0.0
25/05:30am 25.5 28.3 23.0 86 1.7 E 13 17 7 9 1008.0 1007.9 0.0
25/05:00am 25.8 28.2 22.9 84 2.0 E 15 19 8 10 1007.9 1007.8 0.0
25/04:30am 25.9 28.1 23.2 85 1.8 E 17 22 9 12 1007.6 1007.5 0.0
25/04:00am 26.0 27.8 23.3 85 1.8 E 19 24 10 13 1007.6 1007.5 0.0
25/03:30am 25.8 27.7 23.5 87 1.6 E 19 22 10 12 1007.6 1007.5 0.0
25/03:00am 25.6 27.8 23.3 87 1.6 ESE 17 20 9 11 1007.6 1007.5 0.0
25/02:30am 25.6 27.9 23.5 88 1.4 ESE 17 19 9 10 1007.8 1007.7 0.0
25/02:00am 25.6 28.2 23.3 87 1.6 ESE 15 17 8 9 1008.0 1007.9 0.0
25/01:30am 25.8 28.5 23.5 87 1.6 ESE 15 17 8 9 1008.4 1008.3 0.0
25/01:00am 25.6 28.1 23.1 86 1.7 ESE 15 17 8 9 1008.7 1008.6 0.0
25/12:30am 25.7 28.1 23.0 85 1.8 ESE 15 19 8 10 1008.9 1008.8 0.0
25/12:00am 25.8 28.7 23.1 85 1.8 ESE 13 17 7 9 1009.1 1009.0 0.0
 
Date/Time
CST
Temp
°C
App
Temp
°C
Dew
Point
°C
Rel
Hum
%
Delta-T
°C
Wind Press
QNH
hPa
Press
MSL
hPa
Rain since
9am
mm
Dir  Spd
km/h
Gust
km/h
Spd
kts
Gust
kts
24/11:30pm 25.9 27.9 23.0 84 2.0 ESE 17 19 9 10 1009.4 1009.3 0.0
24/11:00pm 25.9 27.9 23.0 84 2.0 ESE 17 20 9 11 1009.7 1009.6 0.0
24/10:30pm 26.1 28.1 23.0 83 2.1 E 17 20 9 11 1009.8 1009.7 0.0
24/10:00pm 26.2 28.3 23.1 83 2.1 ESE 17 20 9 11 1009.7 1009.6 0.0
24/09:30pm 26.3 28.5 23.2 83 2.1 E 17 20 9 11 1009.6 1009.5 0.0
24/09:00pm 26.3 28.5 23.2 83 2.1 E 17 19 9 10 1009.4 1009.3 0.0
24/08:30pm 26.4 28.6 23.3 83 2.1 E 17 20 9 11 1009.2 1009.1 0.0
24/08:00pm 26.4 28.9 23.1 82 2.2 ESE 15 19 8 10 1008.9 1008.8 0.0
24/07:30pm 26.6 29.1 23.1 81 2.4 ESE 15 20 8 11 1008.7 1008.6 0.0
24/07:00pm 26.7 29.1 23.0 80 2.5 ESE 15 17 8 9 1008.5 1008.4 0.0
24/06:30pm 26.9 28.6 22.3 76 3.1 E 17 19 9 10 1008.1 1008.0 0.0
24/06:00pm 27.6 29.6 22.3 73 3.6 E 15 19 8 10 1007.6 1007.5 0.0
24/05:30pm 28.9 31.0 22.4 68 4.4 ESE 15 19 8 10 1007.3 1007.2 0.0
24/05:00pm 29.7 31.6 22.7 66 4.8 ESE 17 19 9 10 1007.1 1007.0 0.0
24/04:30pm 30.4 32.6 22.6 63 5.3 ESE 15 19 8 10 1006.9 1006.8 0.0
24/04:00pm 31.3 33.3 22.9 61 5.8 ESE 17 20 9 11 1006.9 1006.8 0.0
24/03:30pm 31.4 33.8 23.0 61 5.8 ESE 15 19 8 10 1007.1 1007.0 0.0
24/03:00pm 31.9 34.4 23.2 60 6.0 E 15 19 8 10 1007.1 1007.0 0.0
24/02:30pm 31.8 34.7 23.1 60 6.0 ENE 13 17 7 9 1007.4 1007.3 0.0
24/02:00pm 32.0 35.2 23.0 59 6.2 ENE 11 15 6 8 1007.7 1007.6 0.0
24/01:30pm 32.2 34.6 22.9 58 6.4 ENE 15 19 8 10 1008.0 1007.9 0.0
24/01:00pm 32.8 35.6 23.7 58 6.3 E 15 19 8 10 1008.7 1008.6 0.0
24/12:30pm 32.4 35.5 23.6 59 6.1 ENE 13 17 7 9 1009.2 1009.1 0.0
24/12:00pm 31.4 34.0 22.7 60 6.0 ENE 13 17 7 9 1009.7 1009.6 0.0
24/11:30am 32.5 35.7 23.7 59 6.1 E 13 17 7 9 1010.1 1010.0 0.0
24/11:00am 32.0 34.9 23.8 62 5.7 ENE 15 17 8 9 1010.5 1010.4 0.0
24/10:30am 32.0 35.1 24.1 63 5.5 ENE 15 17 8 9 1010.9 1010.8 0.0
24/10:00am 31.2 34.1 23.8 64 5.1 E 15 19 8 10 1011.0 1010.9 0.0
24/09:30am 31.0 33.9 23.9 66 4.9 E 15 20 8 11 1011.1 1011.0 0.0
24/09:00am 30.0 32.9 23.9 70 4.2 ESE 15 19 8 10 1011.2 1011.1 0.0
24/08:30am 29.5 31.9 23.7 71 4.0 E 17 20 9 11 1011.0 1010.9 0.0
24/08:00am 29.4 32.4 24.0 72 3.7 E 15 20 8 11 1010.8 1010.7 0.0
24/07:30am 28.1 30.7 23.9 78 2.9 ESE 17 19 9 10 1010.5 1010.4 0.0
24/07:00am 27.2 30.4 24.3 84 2.0 E 15 19 8 10 1010.2 1010.1 0.0
24/06:30am 26.1 28.7 24.0 88 1.4 E 17 20 9 11 1009.9 1009.8 0.0
24/06:00am 25.8 28.6 23.7 88 1.4 ESE 15 19 8 10 1009.8 1009.7 0.0
24/05:30am 25.8 28.1 23.5 87 1.6 ESE 17 19 9 10 1009.3 1009.2 0.0
24/05:00am 25.7 28.2 23.2 86 1.7 ESE 15 17 8 9 1009.2 1009.1 0.0
24/04:30am 25.9 28.7 23.6 87 1.6 ESE 15 19 8 10 1009.0 1008.9 0.0
24/04:00am 25.9 28.6 23.4 86 1.7 ESE 15 17 8 9 1009.0 1008.9 0.0
24/03:30am 26.0 28.6 23.3 85 1.8 SE 15 19 8 10 1008.9 1008.8 0.0
24/03:00am 26.1 27.9 23.2 84 2.0 SE 19 20 10 11 1009.0 1008.9 0.0
24/02:30am 26.2 28.3 23.1 83 2.1 SE 17 20 9 11 1009.2 1009.1 0.0
24/02:00am 26.3 28.3 23.0 82 2.2 ESE 17 20 9 11 1009.5 1009.4 0.0
24/01:30am 26.4 28.0 22.9 81 2.4 SE 19 24 10 13 1009.7 1009.6 0.0
24/01:00am 26.3 27.7 22.6 80 2.5 ESE 19 20 10 11 1009.9 1009.8 0.0
24/12:30am 26.4 28.0 22.9 81 2.4 SE 19 22 10 12 1010.0 1009.9 0.0
24/12:00am 26.4 28.0 22.9 81 2.4 SE 19 24 10 13 1010.0 1009.9 0.0
 
Date/Time
CST
Temp
°C
App
Temp
°C
Dew
Point
°C
Rel
Hum
%
Delta-T
°C
Wind Press
QNH
hPa
Press
MSL
hPa
Rain since
9am
mm
Dir  Spd
km/h
Gust
km/h
Spd
kts
Gust
kts
23/11:30pm 26.5 27.2 22.3 78 2.8 SE 22 26 12 14 1010.2 1010.1 0.0
23/11:00pm 26.6 27.4 22.4 78 2.8 SE 22 26 12 14 1010.2 1010.1 0.0
23/10:30pm 26.7 27.4 22.3 77 3.0 SE 22 28 12 15 1010.3 1010.2 0.0
23/10:00pm 26.8 27.0 22.0 75 3.2 SE 24 28 13 15 1010.2 1010.1 0.0
23/09:30pm 26.8 27.5 22.2 76 3.1 SE 22 28 12 15 1010.0 1009.9 0.0
23/09:00pm 26.6 27.3 22.2 77 3.0 SE 22 28 12 15 1009.8 1009.7 0.0
23/08:30pm 26.6 27.6 22.2 77 3.0 SE 20 26 11 14 1009.5 1009.4 0.0
23/08:00pm 26.7 27.3 22.1 76 3.1 SE 22 26 12 14 1009.1 1009.0 0.0
23/07:30pm 26.8 27.5 22.2 76 3.1 SE 22 28 12 15 1008.7 1008.6 0.0
23/07:00pm 26.9 27.3 22.5 77 3.0 SE 24 28 13 15 1008.5 1008.4 0.0
23/06:30pm 27.1 27.8 22.3 75 3.2 SE 22 26 12 14 1008.3 1008.2 0.0
23/06:00pm 27.6 28.8 22.5 74 3.5 SE 20 26 11 14 1007.9 1007.8 0.0
23/05:30pm 28.4 29.2 22.4 70 4.1 SE 22 26 12 14 1007.7 1007.6 0.0
23/05:00pm 29.4 30.3 22.6 67 4.6 SE 22 28 12 15 1007.6 1007.5 0.0
23/04:30pm 30.5 31.9 22.9 64 5.2 SE 20 28 11 15 1007.6 1007.5 0.0
23/04:00pm 30.3 31.4 23.0 65 5.0 SE 22 24 12 13 1007.7 1007.6 0.0
23/03:30pm 31.5 33.1 23.3 61 5.7 ESE 20 26 11 14 1007.8 1007.7 0.0
23/03:00pm 31.3 32.8 23.1 61 5.7 ESE 20 26 11 14 1008.1 1008.0 0.0
23/02:30pm 31.7 33.3 23.2 60 5.9 ESE 20 24 11 13 1008.3 1008.2 0.0
23/02:00pm 32.2 33.9 23.4 59 6.1 ESE 20 26 11 14 1008.8 1008.7 0.0
23/01:30pm 33.0 34.4 23.6 57 6.5 ESE 22 28 12 15 1009.1 1009.0 0.0
23/01:00pm 32.3 33.8 23.0 58 6.4 ESE 20 26 11 14 1009.6 1009.5 0.0
23/12:30pm 33.3 35.3 24.5 60 6.2 ESE 22 30 12 16 1010.1 1010.0 0.0
23/12:00pm 32.3 33.9 23.8 61 5.9 ESE 22 28 12 15 1010.7 1010.6 0.0
23/11:30am 32.2 33.5 24.0 62 5.7 SE 24 32 13 17 1011.1 1011.0 0.0
23/11:00am 31.9 33.0 23.7 62 5.7 SE 24 30 13 16 1011.6 1011.5 0.0
23/10:30am 31.6 32.9 24.0 64 5.3 SE 24 30 13 16 1012.2 1012.1 0.0
23/10:00am 31.4 33.2 24.3 66 5.0 SE 22 26 12 14 1012.4 1012.3 0.0
23/09:30am 31.3 33.8 24.4 66 4.8 ESE 19 22 10 12 1012.4 1012.3 0.0
23/09:00am 30.6 32.8 24.3 69 4.4 ESE 20 24 11 13 1012.4 1012.3 0.2
23/08:30am 29.6 31.7 23.8 71 4.0 ESE 19 22 10 12 1012.1 1012.0 0.2
23/08:00am 28.9 31.0 23.8 74 3.5 ESE 19 22 10 12 1011.8 1011.7 0.2
23/07:30am 28.4 30.9 24.4 79 2.8 ESE 19 22 10 12 1011.5 1011.4 0.2
23/07:00am 26.9 28.9 24.0 84 2.0 ESE 20 24 11 13 1011.2 1011.1 0.2
23/06:30am 26.3 28.4 23.8 86 1.7 ESE 19 24 10 13 1010.8 1010.7 0.2
23/06:00am 26.1 28.1 23.6 86 1.7 SE 19 22 10 12 1010.4 1010.3 0.2
23/05:30am 26.2 28.3 23.7 86 1.7 SE 19 22 10 12 1010.1 1010.0 0.2
23/05:00am 26.1 28.0 23.4 85 1.8 SE 19 22 10 12 1009.8 1009.7 0.2
23/04:30am 26.2 28.0 23.3 84 2.0 SE 19 20 10 11 1009.7 1009.6 0.2
23/04:00am 26.2 27.6 22.9 82 2.2 SE 20 24 11 13 1009.4 1009.3 0.2
23/03:30am 26.3 27.7 22.8 81 2.4 SE 20 26 11 14 1009.4 1009.3 0.2
23/03:00am 26.3 27.3 22.8 81 2.4 SE 22 26 12 14 1009.6 1009.5 0.2
23/02:30am 26.3 27.2 22.6 80 2.5 SE 22 26 12 14 1009.8 1009.7 0.2
23/02:00am 26.5 27.3 23.2 82 2.2 SE 24 28 13 15 1010.2 1010.1 0.2
23/01:30am 26.5 27.3 23.2 82 2.2 SE 24 32 13 17 1010.6 1010.5 0.2
23/01:00am 26.6 27.1 23.3 82 2.3 SE 26 32 14 17 1010.9 1010.8 0.2
23/12:30am 26.8 26.9 23.3 81 2.4 SE 28 32 15 17 1011.3 1011.2 0.2
23/12:00am 26.9 27.1 23.4 81 2.4 SE 28 35 15 19 1011.5 1011.4 0.2
 
Date/Time
CST
Temp
°C
App
Temp
°C
Dew
Point
°C
Rel
Hum
%
Delta-T
°C
Wind Press
QNH
hPa
Press
MSL
hPa
Rain since
9am
mm
Dir  Spd
km/h
Gust
km/h
Spd
kts
Gust
kts
22/11:30pm 26.9 27.2 23.6 82 2.3 SE 28 33 15 18 1011.6 1011.5 0.2
22/11:00pm 27.0 27.2 23.5 81 2.4 SE 28 33 15 18 1011.7 1011.6 0.2
22/10:30pm 27.0 27.1 23.3 80 2.5 SE 28 35 15 19 1011.6 1011.5 0.2
22/10:00pm 27.0 26.7 23.3 80 2.5 SE 30 35 16 19 1011.6 1011.5 0.2
22/09:30pm 27.0 26.7 23.3 80 2.5 SE 30 35 16 19 1011.3 1011.2 0.2
22/09:00pm 27.0 27.2 23.5 81 2.4 SSE 28 35 15 19 1011.2 1011.1 0.2
22/08:30pm 27.0 27.2 23.5 81 2.4 SSE 28 35 15 19 1011.0 1010.9 0.2

Other Formats:

Comma delimited format used in spreadsheet applications
http://www.bom.gov.au/fwo/IDD60801/IDD60801.94147.axf

JavaScript Object Notation format (JSON) in row-major order
http://www.bom.gov.au/fwo/IDD60801/IDD60801.94147.json